createdAt,value
2022-09-04T00:07:31.455Z,37
2022-09-04T00:17:41.061Z,37
2022-09-04T00:27:50.829Z,37
2022-09-04T00:38:00.525Z,33
2022-09-04T00:48:10.624Z,38
2022-09-04T00:58:19.859Z,37
2022-09-04T01:08:27.561Z,43
2022-09-04T01:18:36.244Z,40
2022-09-04T01:28:46.734Z,39
2022-09-04T01:38:56.367Z,38
2022-09-04T01:49:04.280Z,38
2022-09-04T01:59:15.345Z,39
2022-09-04T02:09:23.191Z,40
2022-09-04T02:19:33.199Z,38
2022-09-04T02:29:42.974Z,43
2022-09-04T02:39:52.843Z,40
2022-09-04T02:50:02.029Z,43
2022-09-04T03:00:15.487Z,38
2022-09-04T03:10:31.464Z,38
2022-09-04T03:20:41.200Z,39
2022-09-04T03:30:50.353Z,36
2022-09-04T03:40:58.622Z,37
2022-09-04T03:51:07.442Z,36
2022-09-04T04:01:25.352Z,33
2022-09-04T04:11:28.475Z,33
2022-09-04T04:21:36.956Z,32
2022-09-04T04:31:46.567Z,33
2022-09-04T04:41:54.115Z,35
2022-09-04T04:52:04.362Z,35
2022-09-04T05:02:14.366Z,32
2022-09-04T05:12:21.607Z,31
2022-09-04T05:22:34.752Z,32
2022-09-04T05:32:40.350Z,33
2022-09-04T05:42:49.487Z,36
2022-09-04T05:52:58.548Z,34
2022-09-04T06:03:08.544Z,35
2022-09-04T06:13:19.698Z,35
2022-09-04T06:23:28.653Z,35
2022-09-04T06:33:38.670Z,35
2022-09-04T06:43:49.092Z,31
2022-09-04T06:54:03.643Z,28
2022-09-04T07:04:12.629Z,28
2022-09-04T07:14:21.493Z,26
2022-09-04T07:24:35.491Z,24
2022-09-04T07:34:53.135Z,15
2022-09-04T07:45:04.890Z,15
2022-09-04T07:55:18.962Z,13
2022-09-04T08:05:31.315Z,13
2022-09-04T08:15:43.364Z,14
2022-09-04T08:25:46.564Z,15
2022-09-04T08:35:53.552Z,23
2022-09-04T08:46:03.040Z,23
2022-09-04T08:56:10.840Z,23
2022-09-04T09:06:21.338Z,14
2022-09-04T09:16:31.563Z,13
2022-09-04T09:26:41.223Z,12
2022-09-04T09:36:52.451Z,13
2022-09-04T09:47:06.069Z,11
2022-09-04T09:57:33.701Z,11
2022-09-04T10:07:46.083Z,11
2022-09-04T10:17:53.903Z,10
2022-09-04T10:28:02.940Z,11
2022-09-04T10:38:11.639Z,8
2022-09-04T10:48:19.275Z,10
2022-09-04T10:58:27.940Z,10
2022-09-04T11:08:36.835Z,10
2022-09-04T11:18:45.136Z,13
2022-09-04T11:28:51.403Z,10
2022-09-04T11:39:01.410Z,8
2022-09-04T11:49:13.152Z,8
2022-09-04T11:59:19.534Z,11
2022-09-04T12:09:29.111Z,10
2022-09-04T12:19:35.836Z,8
2022-09-04T12:29:43.588Z,8
2022-09-04T12:39:51.366Z,8
2022-09-04T12:49:58.586Z,10
2022-09-04T13:00:05.398Z,9
2022-09-04T13:10:12.325Z,10
2022-09-04T13:20:20.175Z,10
2022-09-04T13:30:33.330Z,10
2022-09-04T13:40:37.257Z,7
2022-09-04T13:50:45.146Z,10
2022-09-04T14:00:52.521Z,9
2022-09-04T14:11:00.536Z,10
2022-09-04T14:21:12.456Z,10
2022-09-04T14:31:17.386Z,8
2022-09-04T14:41:25.379Z,10
2022-09-04T14:51:32.015Z,11
2022-09-04T15:01:38.857Z,10
2022-09-04T15:11:44.999Z,10
2022-09-04T15:21:51.879Z,10
2022-09-04T15:31:57.581Z,10
2022-09-04T15:42:06.661Z,8
2022-09-04T15:52:12.647Z,10
2022-09-04T16:02:20.507Z,10
2022-09-04T16:12:29.394Z,11
2022-09-04T16:22:37.809Z,10
2022-09-04T16:32:47.473Z,10
2022-09-04T16:42:54.863Z,8
2022-09-04T16:53:14.395Z,9
2022-09-04T17:03:21.718Z,10
2022-09-04T17:13:37.312Z,8
2022-09-04T17:29:06.826Z,10
2022-09-04T17:37:32.883Z,10
2022-09-04T17:44:36.426Z,11
2022-09-04T17:54:49.729Z,11
2022-09-04T18:04:53.746Z,13
2022-09-04T18:15:27.590Z,11
2022-09-04T18:25:27.137Z,12
2022-09-04T18:37:15.110Z,11
2022-09-04T18:50:26.267Z,13
2022-09-04T18:56:21.304Z,14
2022-09-04T19:06:27.929Z,12
2022-09-04T19:16:35.959Z,13
2022-09-04T19:26:44.615Z,13
2022-09-04T19:36:54.505Z,13
2022-09-04T19:47:03.088Z,12
2022-09-04T19:57:31.816Z,13
2022-09-04T20:07:41.920Z,11
2022-09-04T20:17:46.747Z,13
2022-09-04T20:28:00.982Z,14
2022-09-04T20:38:23.098Z,14
2022-09-04T20:52:46.548Z,14
2022-09-04T21:03:16.221Z,23
2022-09-04T21:09:22.631Z,14
2022-09-04T21:19:32.405Z,14
2022-09-04T21:29:40.218Z,23
2022-09-04T21:39:58.801Z,14
2022-09-04T21:50:08.060Z,23
2022-09-04T22:02:34.917Z,23
2022-09-04T22:13:36.111Z,23
2022-09-04T22:21:06.902Z,14
2022-09-04T22:31:14.987Z,23
2022-09-04T22:41:23.542Z,24
2022-09-04T22:51:32.713Z,27
2022-09-04T23:01:43.623Z,25
2022-09-04T23:13:55.434Z,23
2022-09-04T23:26:31.865Z,24
2022-09-04T23:32:45.846Z,24
2022-09-04T23:42:55.776Z,13
2022-09-04T23:53:06.052Z,23
